Time;durP1;ratioP1;P1;durP2;ratioP2;P2;SDS_P1;SDS_P2;PMS_P1;PMS_P2;Temp;Humidity;BMP_temperature;BMP_pressure;BME280_temperature;BME280_humidity;BME280_pressure;Samples;Min_cycle;Max_cycle;Signal;HPM_P1;HPM_P2
2022/07/30 00:01:28;;;;;;;;;9.00;8.00;;;;;26.38;45.38;100709.25;146599;664;46921;-72
2022/07/30 00:04:20;;;;;;;;;6.67;6.67;;;;;26.40;45.57;100715.44;146602;576;46011;-71
2022/07/30 00:07:13;;;;;;;;;8.00;7.50;;;;;26.34;45.29;100720.84;146599;573;46921;-69
2022/07/30 00:10:07;;;;;;;;;9.50;9.25;;;;;26.27;45.58;100721.81;146601;571;46020;-70
2022/07/30 00:12:59;;;;;;;;;8.50;6.50;;;;;26.23;45.60;100721.00;146599;619;46922;-69
2022/07/30 00:15:51;;;;;;;;;8.00;8.00;;;;;26.21;46.13;100720.12;146603;583;46020;-73
2022/07/30 00:18:43;;;;;;;;;7.00;7.00;;;;;26.20;46.35;100721.03;146601;655;46012;-71
2022/07/30 00:21:35;;;;;;;;;7.00;7.00;;;;;26.16;46.45;100721.94;146606;632;45020;-73
2022/07/30 00:24:27;;;;;;;;;9.50;8.50;;;;;26.07;46.37;100716.75;146600;580;46016;-73
2022/07/30 00:27:19;;;;;;;;;7.33;7.33;;;;;26.06;45.98;100720.31;146604;633;46021;-70
2022/07/30 00:30:13;;;;;;;;;9.00;8.00;;;;;26.02;46.51;100726.56;146603;649;46016;-69
2022/07/30 00:33:05;;;;;;;;;8.00;6.00;;;;;25.94;46.58;100718.69;146606;571;46021;-72
2022/07/30 00:35:58;;;;;;;;;10.25;9.50;;;;;24.86;46.40;100548.19;146601;669;46012;-73
2022/07/30 00:38:50;;;;;;;;;7.75;7.00;;;;;25.83;45.92;100719.72;146601;595;46020;-73
2022/07/30 00:42:05;;;;;;;;;7.00;7.00;;;;;25.81;45.73;100717.06;146599;573;46036;-74
2022/07/30 00:44:57;;;;;;;;;9.33;7.67;;;;;25.85;45.74;100723.22;146602;580;46010;-69
2022/07/30 00:47:49;;;;;;;;;7.00;6.00;;;;;25.90;45.80;100724.94;146601;592;46017;-70
2022/07/30 00:50:42;;;;;;;;;8.00;8.00;;;;;26.04;46.40;100722.09;146604;599;46020;-70
2022/07/30 00:53:34;;;;;;;;;10.00;8.25;;;;;26.09;46.26;100716.75;146599;579;47014;-70
2022/07/30 00:56:27;;;;;;;;;10.33;7.67;;;;;26.22;46.20;100718.34;146603;579;46021;-70
2022/07/30 00:59:19;;;;;;;;;8.00;7.00;;;;;26.25;46.38;100713.84;146601;600;46016;-72
2022/07/30 01:02:11;;;;;;;;;9.33;8.67;;;;;26.25;46.16;100707.66;146606;592;45021;-72
2022/07/30 01:05:04;;;;;;;;;7.33;7.33;;;;;26.20;46.46;100699.78;146600;628;46012;-73
2022/07/30 01:07:56;;;;;;;;;7.00;7.00;;;;;25.26;46.93;100550.41;146600;717;46010;-70
2022/07/30 01:10:48;;;;;;;;;6.25;6.00;;;;;26.15;46.99;100704.25;146598;644;46017;-69
2022/07/30 01:13:40;;;;;;;;;6.00;6.00;;;;;26.15;47.73;100700.72;146603;659;46010;-72
2022/07/30 01:16:33;;;;;;;;;8.25;7.00;;;;;26.20;47.19;100698.88;146601;565;46016;-71
2022/07/30 01:19:47;;;;;;;;;8.00;6.00;;;;;26.22;46.88;100703.25;146605;625;46020;-72
2022/07/30 01:23:09;;;;;;;;;7.00;7.00;;;;;25.25;47.15;100512.41;146599;678;46016;-68
2022/07/30 01:26:07;;;;;;;;;7.67;7.67;;;;;26.35;47.69;100695.13;146605;590;46021;-71
2022/07/30 01:29:01;;;;;;;;;6.50;6.50;;;;;26.36;47.37;100703.09;146600;565;46012;-77
2022/07/30 01:31:58;;;;;;;;;10.75;8.00;;;;;26.32;47.14;100698.69;146601;693;46010;-78
2022/07/30 01:34:52;;;;;;;;;9.00;8.25;;;;;26.30;46.62;100695.22;146599;595;46016;-78
2022/07/30 01:37:47;;;;;;;;;7.50;7.00;;;;;26.26;47.51;100709.41;146601;621;46020;-74
2022/07/30 01:40:41;;;;;;;;;8.75;8.00;;;;;26.22;48.91;100703.25;146599;597;46017;-73
2022/07/30 01:43:36;;;;;;;;;8.00;7.75;;;;;26.17;48.53;100712.22;146602;570;46020;-71
2022/07/30 01:46:30;;;;;;;;;8.00;7.75;;;;;26.12;48.82;100706.09;146601;743;46017;-70
2022/07/30 01:49:24;;;;;;;;;9.25;8.50;;;;;26.06;47.55;100704.38;146604;564;45021;-71
2022/07/30 01:52:19;;;;;;;;;8.00;7.00;;;;;26.04;46.95;100708.81;146600;669;46016;-72
2022/07/30 01:55:15;;;;;;;;;6.25;6.00;;;;;25.99;46.94;100698.25;146603;716;46021;-72
2022/07/30 01:58:09;;;;;;;;;12.25;9.50;;;;;25.93;47.41;100701.00;146600;578;46921;-72
2022/07/30 02:01:02;;;;;;;;;9.50;9.25;;;;;25.89;47.44;100693.97;146602;586;46021;-69
2022/07/30 02:03:55;;;;;;;;;11.00;9.75;;;;;25.89;47.37;100691.31;146599;659;46016;-72
2022/07/30 02:07:26;;;;;;;;;12.00;11.00;;;;;24.75;47.18;100495.25;146600;600;46010;-71
2022/07/30 02:10:26;;;;;;;;;9.50;9.50;;;;;25.92;46.76;100696.59;146598;643;46924;-70
2022/07/30 02:13:24;;;;;;;;;14.00;13.75;;;;;25.91;46.85;100696.59;146601;580;46020;-69
2022/07/30 02:16:33;;;;;;;;;13.00;12.00;;;;;25.93;46.80;100698.34;146599;618;46013;-68
2022/07/30 02:19:35;;;;;;;;;10.75;10.75;;;;;25.96;46.73;100705.41;146602;625;46020;-70
2022/07/30 02:22:31;;;;;;;;;14.50;12.50;;;;;25.94;46.90;100701.87;146598;578;46017;-70
2022/07/30 02:25:24;;;;;;;;;12.25;12.25;;;;;25.93;46.65;100698.34;146600;602;46010;-70
2022/07/30 02:28:18;;;;;;;;;13.50;12.25;;;;;25.91;46.85;100710.75;146599;641;46016;-70
2022/07/30 02:31:13;;;;;;;;;13.25;12.00;;;;;25.85;46.79;100707.28;146602;611;45021;-71
2022/07/30 02:34:08;;;;;;;;;11.75;11.00;;;;;25.75;46.89;100701.19;146598;632;46012;-71
2022/07/30 02:37:02;;;;;;;;;10.75;10.00;;;;;25.69;46.94;100695.94;146601;629;46020;-71
2022/07/30 02:39:56;;;;;;;;;11.00;10.50;;;;;25.67;46.60;100701.28;146598;575;46013;-69
2022/07/30 02:42:56;;;;;;;;;11.25;9.00;;;;;25.65;46.86;100697.75;146601;584;46010;-71
2022/07/30 02:45:50;;;;;;;;;10.25;10.00;;;;;25.73;47.41;100702.97;146600;700;46016;-71
2022/07/30 02:48:44;;;;;;;;;10.50;9.50;;;;;25.83;47.10;100699.34;146603;619;46028;-70
2022/07/30 02:51:38;;;;;;;;;11.75;11.50;;;;;25.88;46.45;100688.66;146598;609;46016;-71
2022/07/30 02:54:33;;;;;;;;;12.25;12.25;;;;;25.87;46.69;100692.22;146603;634;46010;-71
2022/07/30 02:57:27;;;;;;;;;11.00;10.00;;;;;25.82;46.01;100688.72;146595;569;47016;-71
2022/07/30 03:00:19;;;;;;;;;10.00;8.75;;;;;25.74;46.88;100689.69;146601;637;46020;-71
2022/07/30 03:03:13;;;;;;;;;11.50;11.00;;;;;25.71;47.17;100695.03;146599;580;46016;-71
2022/07/30 03:06:05;;;;;;;;;10.25;10.25;;;;;25.74;47.35;100689.69;146601;716;46020;-70
2022/07/30 03:09:00;;;;;;;;;11.50;11.50;;;;;25.81;47.14;100695.84;146596;573;46013;-70
2022/07/30 03:11:54;;;;;;;;;12.25;11.50;;;;;25.87;47.07;100694.87;146601;564;46014;-70
2022/07/30 03:14:46;;;;;;;;;14.25;9.50;;;;;25.93;47.12;100685.06;146599;721;46012;-71
2022/07/30 03:17:46;;;;;;;;;9.25;9.25;;;;;26.01;47.02;100692.91;146601;578;47010;-70
2022/07/30 03:20:40;;;;;;;;;8.25;8.25;;;;;26.06;47.35;100700.84;146600;665;47014;-70
2022/07/30 03:23:36;;;;;;;;;9.00;8.75;;;;;26.01;46.93;100695.56;146600;718;46021;-71
2022/07/30 03:26:30;;;;;;;;;10.00;10.00;;;;;24.87;47.63;100526.94;146598;596;46016;-69
2022/07/30 03:29:23;;;;;;;;;11.00;11.00;;;;;25.85;47.81;100701.97;146601;566;46020;-70
2022/07/30 03:32:16;;;;;;;;;8.75;8.50;;;;;25.82;47.76;100704.66;146601;602;45922;-71
2022/07/30 03:35:11;;;;;;;;;13.25;11.25;;;;;25.78;47.95;100709.13;146599;703;46020;-70
2022/07/30 03:38:04;;;;;;;;;14.00;12.25;;;;;25.67;48.40;100701.28;146597;572;46013;-71
2022/07/30 03:40:57;;;;;;;;;15.00;14.00;;;;;25.63;48.38;100707.50;146600;676;46010;-68
2022/07/30 03:43:50;;;;;;;;;11.25;10.00;;;;;25.50;48.36;100704.09;146598;651;46016;-69
2022/07/30 03:46:44;;;;;;;;;12.75;10.75;;;;;25.51;49.11;100704.97;146604;564;46021;-68
2022/07/30 03:49:37;;;;;;;;;11.50;10.75;;;;;25.46;49.02;100714.78;146597;654;46012;-70
2022/07/30 03:52:30;;;;;;;;;9.00;9.00;;;;;25.39;48.96;100718.37;146602;608;46020;-70
2022/07/30 03:55:23;;;;;;;;;9.25;9.25;;;;;25.39;49.07;100715.72;146599;685;46016;-70
2022/07/30 03:58:15;;;;;;;;;9.75;9.25;;;;;25.38;49.14;100722.81;146598;571;46925;-70
2022/07/30 04:01:08;;;;;;;;;12.00;11.25;;;;;25.33;49.13;100717.56;146597;628;46014;-71
2022/07/30 04:04:13;;;;;;;;;9.00;9.00;;;;;25.34;48.98;100716.66;146601;590;46010;-67
2022/07/30 04:07:05;;;;;;;;;13.25;11.00;;;;;25.40;49.48;100722.81;146599;573;46012;-68
2022/07/30 04:09:57;;;;;;;;;8.75;8.75;;;;;25.37;48.76;100722.84;146602;605;46020;-69
2022/07/30 04:12:49;;;;;;;;;9.75;9.00;;;;;25.43;49.10;100720.12;146596;565;46037;-69
2022/07/30 04:15:52;;;;;;;;;9.50;9.25;;;;;25.60;48.76;100717.28;146602;694;46020;-69
2022/07/30 04:18:50;;;;;;;;;11.00;10.00;;;;;25.72;49.04;100718.03;146600;709;46921;-69
2022/07/30 04:21:44;;;;;;;;;10.25;9.25;;;;;25.80;49.05;100715.28;146601;580;46020;-70
2022/07/30 04:24:37;;;;;;;;;11.25;9.25;;;;;25.92;49.57;100731.13;146598;643;46922;-68
2022/07/30 04:27:31;;;;;;;;;12.00;7.00;;;;;26.01;49.61;100736.34;146600;565;46020;-68
2022/07/30 04:30:23;;;;;;;;;13.00;10.25;;;;;26.05;48.70;100729.19;146597;721;48922;-68
2022/07/30 04:33:15;;;;;;;;;13.50;12.25;;;;;26.08;48.96;100731.81;146601;595;46020;-68
2022/07/30 04:36:11;;;;;;;;;9.50;9.50;;;;;26.14;49.12;100726.44;146600;574;46014;-68
2022/07/30 04:39:04;;;;;;;;;11.00;10.25;;;;;26.22;49.20;100724.53;146601;668;46021;-68
2022/07/30 04:41:56;;;;;;;;;10.75;9.75;;;;;26.31;49.23;100735.94;146597;607;46024;-69
2022/07/30 04:44:48;;;;;;;;;9.00;9.00;;;;;26.45;49.46;100729.56;146600;565;46011;-68
2022/07/30 04:47:41;;;;;;;;;10.75;9.75;;;;;26.67;49.58;100726.62;146598;599;46016;-71
2022/07/30 04:50:33;;;;;;;;;11.25;10.50;;;;;26.92;48.79;100729.78;146602;710;46020;-70
2022/07/30 04:53:26;;;;;;;;;12.00;11.50;;;;;26.64;49.08;100645.09;146598;692;47014;-72
2022/07/30 04:56:19;;;;;;;;;9.25;8.00;;;;;27.40;48.61;100730.75;146603;632;46010;-70
2022/07/30 04:59:13;;;;;;;;;11.25;10.00;;;;;27.70;47.77;100731.09;146600;643;46017;-70
2022/07/30 05:02:06;;;;;;;;;12.67;10.67;;;;;27.98;47.88;100730.56;146603;557;45038;-71
2022/07/30 05:05:00;;;;;;;;;11.67;10.00;;;;;28.26;46.85;100733.53;146598;576;46016;-70
2022/07/30 05:07:52;;;;;;;;;10.33;10.33;;;;;28.51;47.13;100734.78;146601;642;46011;-70
2022/07/30 05:10:46;;;;;;;;;11.00;10.00;;;;;28.72;46.23;100738.75;146599;594;46016;-68
2022/07/30 05:13:38;;;;;;;;;11.67;10.00;;;;;28.91;45.37;100740.94;146604;572;46010;-68
2022/07/30 05:16:32;;;;;;;;;10.67;10.33;;;;;29.11;44.76;100744.06;146599;626;46016;-70
2022/07/30 05:19:25;;;;;;;;;11.25;10.50;;;;;29.31;43.90;100743.53;146602;616;46037;-70
2022/07/30 05:22:17;;;;;;;;;12.00;11.00;;;;;29.50;43.52;100748.41;146600;581;46016;-72
2022/07/30 05:25:10;;;;;;;;;10.00;10.00;;;;;29.66;43.41;100741.78;146603;722;46020;-72
2022/07/30 05:28:02;;;;;;;;;13.50;12.75;;;;;29.82;43.02;100743.09;146599;682;46016;-72
2022/07/30 05:30:54;;;;;;;;;12.75;12.75;;;;;29.97;42.51;100744.47;146599;575;46010;-72
2022/07/30 05:33:46;;;;;;;;;10.50;10.25;;;;;30.11;42.85;100750.28;146598;575;46034;-72
2022/07/30 05:36:38;;;;;;;;;12.00;10.50;;;;;30.27;42.49;100757.88;146603;624;46010;-71
2022/07/30 05:39:30;;;;;;;;;10.00;9.50;;;;;30.43;42.26;100759.16;146600;634;46012;-68
2022/07/30 05:42:22;;;;;;;;;10.25;8.25;;;;;30.60;41.85;100767.56;146603;564;46010;-70
2022/07/30 05:45:15;;;;;;;;;10.00;9.25;;;;;30.70;42.09;100762.78;146599;584;46016;-71
2022/07/30 05:48:07;;;;;;;;;12.25;10.50;;;;;30.83;41.46;100760.62;146600;701;47010;-70
2022/07/30 05:51:00;;;;;;;;;13.50;13.00;;;;;30.94;41.19;100757.62;146600;586;46012;-71
2022/07/30 05:53:52;;;;;;;;;12.25;11.25;;;;;30.15;41.33;100618.22;146604;624;46026;-71
2022/07/30 05:56:44;;;;;;;;;13.50;13.50;;;;;31.10;41.18;100763.34;146601;653;46016;-73
2022/07/30 05:59:36;;;;;;;;;11.00;11.00;;;;;31.22;41.96;100770.97;146601;619;46010;-71
2022/07/30 06:02:29;;;;;;;;;11.50;11.00;;;;;31.35;41.56;100766.97;146598;616;46016;-71
2022/07/30 06:05:21;;;;;;;;;14.25;14.25;;;;;31.46;41.67;100763.91;146600;600;46020;-69
2022/07/30 06:08:13;;;;;;;;;13.50;10.75;;;;;31.56;41.86;100769.81;146599;628;46016;-68
2022/07/30 06:11:07;;;;;;;;;10.25;9.75;;;;;30.71;41.69;100617.31;146602;664;46010;-69
2022/07/30 06:13:59;;;;;;;;;9.75;9.75;;;;;31.65;41.81;100764.12;146626;692;46922;-68
2022/07/30 06:16:51;;;;;;;;;8.00;8.00;;;;;31.64;41.67;100770.44;146627;657;46010;-70
2022/07/30 06:19:44;;;;;;;;;9.00;9.00;;;;;31.61;42.37;100766.06;146628;564;45012;-70
2022/07/30 06:22:36;;;;;;;;;10.25;8.00;;;;;31.62;42.48;100772.28;146628;602;46010;-71
2022/07/30 06:25:28;;;;;;;;;13.75;13.50;;;;;31.68;43.04;100772.06;146627;599;45016;-71
2022/07/30 06:28:22;;;;;;;;;19.75;19.75;;;;;31.72;42.58;100777.28;146626;615;45021;-72
2022/07/30 06:31:14;;;;;;;;;56.75;47.50;;;;;31.74;43.18;100777.22;146626;585;45016;-71
2022/07/30 06:34:06;;;;;;;;;72.33;65.33;;;;;31.77;42.67;100771.75;146630;592;45010;-71
2022/07/30 06:36:58;;;;;;;;;14.75;13.00;;;;;31.77;42.73;100778.91;146628;592;45016;-71
2022/07/30 06:39:50;;;;;;;;;44.50;36.00;;;;;31.74;43.11;100778.09;146628;562;45010;-71
2022/07/30 06:42:42;;;;;;;;;19.25;16.50;;;;;31.71;43.22;100775.56;146629;606;45012;-71
2022/07/30 06:45:34;;;;;;;;;14.75;13.25;;;;;31.74;42.80;100775.41;146627;674;46010;-71
2022/07/30 06:48:27;;;;;;;;;24.75;21.75;;;;;31.77;42.88;100771.75;146626;577;45016;-70
2022/07/30 06:51:19;;;;;;;;;18.75;18.00;;;;;31.83;42.80;100784.94;146628;581;45021;-70
2022/07/30 06:54:11;;;;;;;;;19.25;17.50;;;;;31.88;42.55;100779.41;146626;578;46010;-71
2022/07/30 06:57:03;;;;;;;;;12.50;11.50;;;;;31.91;41.94;100771.28;146629;583;46010;-70
2022/07/30 06:59:56;;;;;;;;;11.50;11.00;;;;;31.93;42.17;100774.78;146616;681;46016;-69
2022/07/30 07:02:48;;;;;;;;;9.50;9.50;;;;;31.99;42.08;100769.19;146629;575;45020;-71
2022/07/30 07:05:40;;;;;;;;;7.00;6.50;;;;;32.07;42.03;100776.97;146629;659;45029;-71
2022/07/30 07:08:33;;;;;;;;;7.00;7.00;;;;;32.16;42.02;100776.63;146628;563;45020;-70
2022/07/30 07:11:25;;;;;;;;;9.00;9.00;;;;;32.23;41.68;100772.78;146621;653;47017;-71
2022/07/30 07:14:17;;;;;;;;;8.00;8.00;;;;;32.31;41.46;100769.81;146600;619;47010;-71
2022/07/30 07:17:10;;;;;;;;;9.25;9.25;;;;;32.39;41.82;100773.06;146599;619;46016;-70
2022/07/30 07:20:02;;;;;;;;;9.00;8.50;;;;;32.47;40.97;100765.63;146601;615;46010;-68
2022/07/30 07:22:54;;;;;;;;;8.50;7.75;;;;;32.52;40.52;100768.13;146599;575;46016;-71
2022/07/30 07:25:46;;;;;;;;;10.25;9.75;;;;;32.53;40.97;100770.75;146602;704;46020;-71
2022/07/30 07:28:39;;;;;;;;;11.50;9.00;;;;;32.59;40.46;100765.16;146600;625;46012;-69
2022/07/30 07:35:19;;;;;;;;;9.00;9.00;;;;;32.71;41.45;100765.56;146604;572;46013;-70
2022/07/30 07:38:12;;;;;;;;;11.50;10.50;;;;;32.76;41.62;100759.09;146608;578;46010;-69
2022/07/30 07:41:04;;;;;;;;;9.00;9.00;;;;;32.82;40.95;100764.22;146606;669;46015;-69
2022/07/30 07:43:56;;;;;;;;;14.75;11.50;;;;;32.86;41.15;100767.66;146605;598;47010;-70
2022/07/30 07:46:49;;;;;;;;;9.50;9.50;;;;;32.90;41.71;100753.19;146603;573;47014;-71
2022/07/30 07:49:41;;;;;;;;;10.00;10.00;;;;;32.94;41.09;100752.09;146608;610;46010;-68
2022/07/30 07:52:33;;;;;;;;;8.00;7.00;;;;;32.92;42.26;100759.34;146606;704;46016;-69
2022/07/30 07:55:25;;;;;;;;;12.33;11.67;;;;;32.89;42.33;100752.28;146606;615;46020;-70
2022/07/30 07:58:18;;;;;;;;;9.67;9.00;;;;;32.92;41.92;100747.72;146602;611;46017;-68
2022/07/30 08:01:10;;;;;;;;;13.00;11.00;;;;;32.92;42.09;100737.84;146606;732;46020;-68
2022/07/30 08:04:02;;;;;;;;;10.25;9.25;;;;;32.97;42.10;100738.56;146605;655;46034;-70
2022/07/30 08:06:55;;;;;;;;;12.25;11.00;;;;;33.04;42.22;100742.75;146604;688;46920;-70
2022/07/30 08:09:47;;;;;;;;;9.75;8.50;;;;;33.10;41.13;100741.63;146605;610;46016;-70
2022/07/30 08:12:40;;;;;;;;;12.00;11.50;;;;;33.13;41.61;100737.94;146606;574;46020;-70
2022/07/30 08:15:32;;;;;;;;;10.50;10.50;;;;;32.97;41.47;100737.69;146601;581;48923;-73
2022/07/30 08:18:24;;;;;;;;;10.50;10.25;;;;;32.73;42.04;100743.09;146608;656;47010;-74
2022/07/30 08:21:16;;;;;;;;;10.00;10.00;;;;;32.60;42.97;100744.53;146604;566;46016;-74
2022/07/30 08:24:08;;;;;;;;;9.75;9.00;;;;;32.51;41.95;100750.28;146608;565;46010;-73
2022/07/30 08:27:01;;;;;;;;;9.25;7.75;;;;;32.53;43.25;100759.16;146605;569;46030;-74
2022/07/30 08:29:54;;;;;;;;;9.75;9.75;;;;;32.47;42.72;100752.22;146610;703;46010;-74
2022/07/30 08:32:45;;;;;;;;;8.75;8.50;;;;;32.43;43.43;100751.47;146604;564;46017;-74
2022/07/30 08:35:38;;;;;;;;;9.00;9.00;;;;;32.36;42.73;100757.06;146607;614;47010;-74
2022/07/30 08:38:30;;;;;;;;;10.00;9.50;;;;;32.36;42.62;100759.75;146605;648;46016;-73
2022/07/30 08:41:27;;;;;;;;;8.50;8.50;;;;;32.43;42.19;100753.22;146610;570;46010;-73
2022/07/30 08:44:21;;;;;;;;;8.00;7.00;;;;;32.53;42.44;100743.03;146605;573;46037;-74
2022/07/30 08:47:18;;;;;;;;;11.00;10.00;;;;;32.67;42.26;100733.47;146608;595;46010;-73
2022/07/30 08:50:11;;;;;;;;;9.50;9.50;;;;;32.84;42.51;100734.63;146605;578;46012;-72
2022/07/30 08:53:05;;;;;;;;;10.00;7.75;;;;;33.06;41.71;100734.63;146606;672;46020;-74
2022/07/30 09:20:17;;;;;;;;;9.00;8.50;;;;;33.83;39.10;100726.78;146621;481;45018;-74
2022/07/30 09:23:25;;;;;;;;;9.25;8.75;;;;;33.83;39.34;100726.78;146608;621;46012;-73
2022/07/30 09:26:22;;;;;;;;;8.75;8.00;;;;;33.87;38.61;100730.25;146604;576;47010;-73
2022/07/30 09:29:35;;;;;;;;;9.25;8.25;;;;;33.86;38.11;100723.09;146606;569;46016;-73
2022/07/30 09:32:53;;;;;;;;;8.25;8.00;;;;;33.63;39.10;100686.50;146608;633;46021;-73
2022/07/30 09:35:59;;;;;;;;;8.75;8.75;;;;;33.47;37.99;100643.28;146606;714;46014;-73
2022/07/30 09:39:05;;;;;;;;;10.00;9.00;;;;;33.88;36.24;100727.47;146610;570;46014;-73
2022/07/30 09:42:23;;;;;;;;;9.00;8.50;;;;;33.70;36.83;100729.16;146605;713;46919;-73
2022/07/30 09:45:53;;;;;;;;;7.50;7.50;;;;;33.55;39.01;100730.75;146608;645;46020;-74
2022/07/30 09:48:48;;;;;;;;;9.50;8.75;;;;;33.64;38.63;100721.37;146606;720;46017;-73
2022/07/30 09:51:43;;;;;;;;;12.75;10.50;;;;;33.66;40.06;100715.94;146609;620;46020;-73
2022/07/30 09:54:56;;;;;;;;;10.25;8.25;;;;;33.72;39.34;100721.03;146606;575;46016;-73
2022/07/30 09:58:12;;;;;;;;;9.25;9.25;;;;;33.77;39.86;100713.62;146608;618;47010;-71
